Terminal Aerodrome Forecast
Issued by NWS Nashville, TN

Home | Current Version | Previous Version | Text Only | Print | Product List | Glossary On
Versions: 1 2 3 4 5 6 7 8 9 10 11 12 13 14 15
364
FTUS44 KOHX 141120
TAFBNA
TAF
KBNA 141120Z 1412/1512 08007KT P6SM SCT040 OVC080
     FM141600 11010KT 5SM -SN BR OVC030
     FM142100 13011KT 4SM -SNPL BR OVC010
      TEMPO 1421/1501 2SM -SNPL BR OVC007
     FM150100 16008KT 4SM -RA OVC007=

USA.gov is the U.S. government's official web portal to all federal, state and local government web resources and services.